Airfield :
LOGIN :

Register | Disclaimer

   EN    FR    IT 

 










Legend :    VFR   Marginal VFR   IFR   Intensive IFR   Very Intensive IFR
Visi :
Ceiling :
>= 8 km
>= 3000ft
5 to 8 km
1000 to 3000 ft
1500m to 5 km
500 to 1000 ft
800 to 1500m
200 to 500 ft
< 800m
< 200 ft
Symbols :   Thunderstorms  Fog  Heavy snow  Heavy precipitations  Wind > 20 kt
SIGMETs :     Misc.  Thunderstorms  Icing  Turbulence  Mountain Waves  Volcanic Ashes






- Airport Elevation : 597 ft
- IATA code : PDV


LBPD - Plovdiv

CURRENT METAR :
  • 090730Z AUTO 29004KT 9999 NCD 00/M02 Q1014 NOSIG

EXPIRED METARs :
  • 090700Z AUTO 31007KT 9999 FEW100/// M01/M02 Q1015 NOSIG
  • 090630Z AUTO 29004KT 9000 FEW110/// M02/M03 Q1015 NOSIG
  • 090600Z AUTO 29007KT 9999 NCD M02/M03 Q1014 NOSIG
  • 090530Z AUTO 29003KT 8000 NCD M03/M03 Q1014 NOSIG
  • 090500Z AUTO 23004KT 9999 NCD M03/M04 Q1014 NOSIG
  • 090430Z AUTO 28003KT 250V310 9999 NCD M01/M02 Q1013 NOSIG

TAF TAF LBPD
Valid from the 09 at 06:00 until the 10 at 06:00 UTC


090500Z 0906/1006 VRB04KT 6000 NSC
TEMPO 0906/0908 3000 BR SCT005 BKN010
BECMG 0908/0910 10010KT
BECMG 0916/0918 SCT005 BKN010
TEMPO 0918/1006 4000 BR



MET'MAP, your aeronautical weather chart ! - Copyright ORBIFLY December 2007 - Disclaimer

ORBIFLY MET'MAP TEAM :

Programming & Development : Alexandra Zaïnal
Concept & original design : Baudouin d'Aumeries
Assistance for programming : Marc-Olivier Méhu
Technical & hardware support : Manuel Goepfert

Contact : metmap@orbifly.com




SOURCES & CREDITS :

   NOAA